NCAR-RAP Real-Time Weather Data

Output produced by METARs form (19 November 2018  11:21 UTC)
found at http://weather.rap.ucar.edu/surface/
 
Conditions at: KRSW observed 19 November 2018  10:53 UTC
Temperature: 20.6°C (69°F)
Dewpoint: 18.3°C (65°F) [RH = 87%]
Pressure (altimeter): 30.06 inches Hg (1018.0 mb)
[Sea-level pressure: 1017.8 mb]
Winds: from the NE (40 degrees) at 5 MPH (4 knots; 2.1 m/s)
Visibility: 10 or more miles (16+ km)
Ceiling: 5500 feet AGL
Clouds: overcast cloud deck at 5500 feet AGL
Present Weather: no significant weather observed at this time
KRSW 191053Z 04004KT 10SM OVC055 21/18 A3006 RMK AO2 SLP178 T02060183

Conditions at: KRSW observed 19 November 2018  09:53 UTC
Temperature: 20.0°C (68°F)
Dewpoint: 18.3°C (65°F) [RH = 90%]
Pressure (altimeter): 30.05 inches Hg (1017.7 mb)
[Sea-level pressure: 1017.4 mb]
Winds: from the NE (50 degrees) at 6 MPH (5 knots; 2.6 m/s)
Visibility: 10 or more miles (16+ km)
Ceiling: at least 12,000 feet AGL
Clouds: few clouds at 5500 feet AGL
Present Weather: automated observation with no human augmentation;
there may or may not be significant weather present at this time
KRSW 190953Z AUTO 05005KT 10SM FEW055 20/18 A3005 RMK AO2 SLP174 T02000183

Conditions at: KRSW observed 19 November 2018  08:53 UTC
Temperature: 21.1°C (70°F)
Dewpoint: 18.9°C (66°F) [RH = 87%]
Pressure (altimeter): 30.05 inches Hg (1017.7 mb)
[Sea-level pressure: 1017.2 mb]
Winds: from the NNE (30 degrees) at 6 MPH (5 knots; 2.6 m/s)
Visibility: 10 or more miles (16+ km)
Ceiling: 5000 feet AGL
Clouds: broken clouds at 5000 feet AGL
overcast cloud deck at 9500 feet AGL
Present Weather: automated observation with no human augmentation;
there may or may not be significant weather present at this time
KRSW 190853Z AUTO 03005KT 10SM BKN050 OVC095 21/19 A3005 RMK AO2 SLP172 60001 T02110189 56010

Conditions at: KRSW observed 19 November 2018  07:53 UTC
Temperature: 20.6°C (69°F)
Dewpoint: 18.9°C (66°F) [RH = 90%]
Pressure (altimeter): 30.05 inches Hg (1017.7 mb)
[Sea-level pressure: 1017.3 mb]
Winds: from the NE (50 degrees) at 6 MPH (5 knots; 2.6 m/s)
Visibility: 10 or more miles (16+ km)
Ceiling: 9000 feet AGL
Clouds: few clouds at 6500 feet AGL
overcast cloud deck at 9000 feet AGL
Present Weather: automated observation with no human augmentation;
there may or may not be significant weather present at this time
KRSW 190753Z AUTO 05005KT 10SM FEW065 OVC090 21/19 A3005 RMK AO2 SLP173 T02060189

Conditions at: KRSW observed 19 November 2018  06:53 UTC
Temperature: 20.6°C (69°F)
Dewpoint: 18.9°C (66°F) [RH = 90%]
Pressure (altimeter): 30.06 inches Hg (1018.0 mb)
[Sea-level pressure: 1017.7 mb]
Winds: from the NE (50 degrees) at 5 MPH (4 knots; 2.1 m/s)
Visibility: 10 or more miles (16+ km)
Ceiling: 6000 feet AGL
Clouds: few clouds at 4500 feet AGL
overcast cloud deck at 6000 feet AGL
Present Weather: automated observation with no human augmentation;
there may or may not be significant weather present at this time
KRSW 190653Z AUTO 05004KT 10SM FEW045 OVC060 21/19 A3006 RMK AO2 RAE44 SLP177 P0001 T02060189

Conditions at: KRSW observed 19 November 2018  05:53 UTC
Temperature: 20.6°C (69°F)
Dewpoint: 20.0°C (68°F) [RH = 96%]
Pressure (altimeter): 30.08 inches Hg (1018.7 mb)
[Sea-level pressure: 1018.2 mb]
Winds: from the WSW (240 degrees) at 5 MPH (4 knots; 2.1 m/s)
Visibility: 10 or more miles (16+ km)
Ceiling: 5000 feet AGL
Clouds: overcast cloud deck at 5000 feet AGL
Present Weather: -RA  (light rain)
KRSW 190553Z AUTO 24004KT 10SM -RA OVC050 21/20 A3008 RMK AO2 RAB0455 SLP182 P0000 60000 T02060200 10239 20206 57008

Conditions at: KRSW observed 19 November 2018  04:53 UTC
Temperature: 21.1°C (70°F)
Dewpoint: 19.4°C (67°F) [RH = 90%]
Pressure (altimeter): 30.08 inches Hg (1018.7 mb)
[Sea-level pressure: 1018.4 mb]
Winds: from the WSW (250 degrees) at 6 MPH (5 knots; 2.6 m/s)
Visibility: 10 or more miles (16+ km)
Ceiling: 6000 feet AGL
Clouds: overcast cloud deck at 6000 feet AGL
Present Weather: automated observation with no human augmentation;
there may or may not be significant weather present at this time
KRSW 190453Z AUTO 25005KT 10SM OVC060 21/19 A3008 RMK AO2 RAB22E34 SLP184 P0000 T02110194 402780161

Conditions at: KRSW observed 19 November 2018  03:53 UTC
Temperature: 22.2°C (72°F)
Dewpoint: 18.9°C (66°F) [RH = 82%]
Pressure (altimeter): 30.10 inches Hg (1019.4 mb)
[Sea-level pressure: 1018.9 mb]
Winds: from the SSW (200 degrees) at 5 MPH (4 knots; 2.1 m/s)
Visibility: 10 or more miles (16+ km)
Ceiling: 4700 feet AGL
Clouds: scattered clouds at 3600 feet AGL
overcast cloud deck at 4700 feet AGL
Present Weather: no significant weather observed at this time
KRSW 190353Z 20004KT 10SM SCT036 OVC047 22/19 A3010 RMK AO2 RAB11E46 SLP189 P0000 T02220189

Conditions at: KRSW observed 19 November 2018  02:53 UTC
Temperature: 22.2°C (72°F)
Dewpoint: 18.9°C (66°F) [RH = 82%]
Pressure (altimeter): 30.10 inches Hg (1019.4 mb)
[Sea-level pressure: 1019.1 mb]
Winds: from the WSW (250 degrees) at 3 MPH (3 knots; 1.6 m/s)
Visibility: 10 or more miles (16+ km)
Ceiling: 6000 feet AGL
Clouds: overcast cloud deck at 6000 feet AGL
Present Weather: no significant weather observed at this time
KRSW 190253Z 25003KT 10SM OVC060 22/19 A3010 RMK AO2 SLP191 T02220189 51012

Conditions at: KRSW observed 19 November 2018  01:53 UTC
Temperature: 23.3°C (74°F)
Dewpoint: 18.3°C (65°F) [RH = 74%]
Pressure (altimeter): 30.10 inches Hg (1019.4 mb)
[Sea-level pressure: 1018.9 mb]
Winds: from the S (170 degrees) at 7 MPH (6 knots; 3.1 m/s)
Visibility: 10 or more miles (16+ km)
Ceiling: 5500 feet AGL
Clouds: scattered clouds at 4600 feet AGL
overcast cloud deck at 5500 feet AGL
Present Weather: no significant weather observed at this time
KRSW 190153Z 17006KT 10SM SCT046 OVC055 23/18 A3010 RMK AO2 SLP189 T02330183

Conditions at: KRSW observed 19 November 2018  00:53 UTC
Temperature: 22.8°C (73°F)
Dewpoint: 17.8°C (64°F) [RH = 73%]
Pressure (altimeter): 30.08 inches Hg (1018.7 mb)
[Sea-level pressure: 1018.2 mb]
Winds: from the ENE (70 degrees) at 7 MPH (6 knots; 3.1 m/s)
Visibility: 10 or more miles (16+ km)
Ceiling: 4900 feet AGL
Clouds: broken clouds at 4900 feet AGL
overcast cloud deck at 6000 feet AGL
Present Weather: no significant weather observed at this time
KRSW 190053Z 07006KT 10SM BKN049 OVC060 23/18 A3008 RMK AO2 SLP182 T02280178

Conditions at: KRSW observed 18 November 2018  23:53 UTC
Temperature: 23.9°C (75°F)
Dewpoint: 17.2°C (63°F) [RH = 66%]
Pressure (altimeter): 30.07 inches Hg (1018.4 mb)
[Sea-level pressure: 1017.9 mb]
Winds: from the NE (50 degrees) at 5 MPH (4 knots; 2.1 m/s)
Visibility: 10 or more miles (16+ km)
Ceiling: 4900 feet AGL
Clouds: broken clouds at 4900 feet AGL
Present Weather: no significant weather observed at this time
KRSW 182353Z 05004KT 10SM BKN049 24/17 A3007 RMK AO2 SLP179 T02390172 10278 20233 53003

Conditions at: KRSW observed 18 November 2018  22:53 UTC
Temperature: 24.4°C (76°F)
Dewpoint: 17.2°C (63°F) [RH = 64%]
Pressure (altimeter): 30.05 inches Hg (1017.7 mb)
[Sea-level pressure: 1017.3 mb]
Winds: from the NE (50 degrees) at 6 MPH (5 knots; 2.6 m/s)
Visibility: 10 or more miles (16+ km)
Ceiling: at least 12,000 feet AGL
Clouds: few clouds at 9500 feet AGL
Present Weather: no significant weather observed at this time
KRSW 182253Z 05005KT 10SM FEW095 24/17 A3005 RMK AO2 SLP173 T02440172

Conditions at: KRSW observed 18 November 2018  21:53 UTC
Temperature: 26.1°C (79°F)
Dewpoint: 17.2°C (63°F) [RH = 58%]
Pressure (altimeter): 30.05 inches Hg (1017.7 mb)
[Sea-level pressure: 1017.4 mb]
Winds: from the NE (40 degrees) at 7 MPH (6 knots; 3.1 m/s)
Visibility: 10 or more miles (16+ km)
Ceiling: 6000 feet AGL
Clouds: broken clouds at 6000 feet AGL
broken clouds at 7500 feet AGL
Present Weather: no significant weather observed at this time
KRSW 182153Z 04006KT 10SM BKN060 BKN075 26/17 A3005 RMK AO2 SLP174 T02610172

Conditions at: KRSW observed 18 November 2018  20:53 UTC
Temperature: 26.1°C (79°F)
Dewpoint: 16.1°C (61°F) [RH = 54%]
Pressure (altimeter): 30.06 inches Hg (1018.0 mb)
[Sea-level pressure: 1017.6 mb]
Winds: from the NE (50 degrees) at 8 MPH (7 knots; 3.6 m/s)
Visibility: 10 or more miles (16+ km)
Ceiling: 5500 feet AGL
Clouds: broken clouds at 5500 feet AGL
overcast cloud deck at 6500 feet AGL
Present Weather: no significant weather observed at this time
KRSW 182053Z 05007KT 10SM BKN055 OVC065 26/16 A3006 RMK AO2 SLP176 T02610161 55009

Conditions at: KRSW observed 18 November 2018  19:53 UTC
Temperature: 27.2°C (81°F)
Dewpoint: 16.7°C (62°F) [RH = 53%]
Pressure (altimeter): 30.05 inches Hg (1017.7 mb)
[Sea-level pressure: 1017.5 mb]
Winds: from the E (80 degrees) at 10 MPH (9 knots; 4.7 m/s)
Visibility: 10 or more miles (16+ km)
Ceiling: 6000 feet AGL
Clouds: few clouds at 4300 feet AGL
overcast cloud deck at 6000 feet AGL
Present Weather: no significant weather observed at this time
KRSW 181953Z 08009KT 10SM FEW043 OVC060 27/17 A3005 RMK AO2 SLP175 T02720167

Conditions at: KRSW observed 18 November 2018  18:53 UTC
Temperature: 27.2°C (81°F)
Dewpoint: 16.7°C (62°F) [RH = 53%]
Pressure (altimeter): 30.06 inches Hg (1018.0 mb)
[Sea-level pressure: 1017.6 mb]
Winds: from the ENE (70 degrees) at 7 MPH (6 knots; 3.1 m/s)
Visibility: 10 or more miles (16+ km)
Ceiling: 9500 feet AGL
Clouds: broken clouds at 9500 feet AGL
Present Weather: no significant weather observed at this time
KRSW 181853Z 07006KT 10SM BKN095 27/17 A3006 RMK AO2 SLP176 T02720167

Conditions at: KRSW observed 18 November 2018  17:53 UTC
Temperature: 27.2°C (81°F)
Dewpoint: 16.1°C (61°F) [RH = 51%]
Pressure (altimeter): 30.09 inches Hg (1019.0 mb)
[Sea-level pressure: 1018.5 mb]
Winds: from the E (100 degrees) at 9 MPH (8 knots; 4.2 m/s)
Visibility: 10 or more miles (16+ km)
Ceiling: at least 12,000 feet AGL
Clouds: sky clear below 12,000 feet AGL
Present Weather: no significant weather observed at this time
KRSW 181753Z 10008KT 10SM CLR 27/16 A3009 RMK AO2 SLP185 T02720161 10272 20161 58025

Conditions at: KRSW observed 18 November 2018  16:53 UTC
Temperature: 26.1°C (79°F)
Dewpoint: 17.2°C (63°F) [RH = 58%]
Pressure (altimeter): 30.12 inches Hg (1020.1 mb)
[Sea-level pressure: 1019.7 mb]
Winds: from the NE (50 degrees) at 9 MPH (8 knots; 4.2 m/s)
Visibility: 10 or more miles (16+ km)
Ceiling: 6500 feet AGL
Clouds: broken clouds at 6500 feet AGL
broken clouds at 9000 feet AGL
Present Weather: no significant weather observed at this time
KRSW 181653Z 05008KT 10SM BKN065 BKN090 26/17 A3012 RMK AO2 SLP197 T02610172

Conditions at: KRSW observed 18 November 2018  15:53 UTC
Temperature: 23.9°C (75°F)
Dewpoint: 16.7°C (62°F) [RH = 64%]
Pressure (altimeter): 30.16 inches Hg (1021.4 mb)
[Sea-level pressure: 1021.1 mb]
Winds: from the NE (40 degrees) at 3 MPH (3 knots; 1.6 m/s)
Visibility: 10 or more miles (16+ km)
Ceiling: 6000 feet AGL
Clouds: overcast cloud deck at 6000 feet AGL
Present Weather: no significant weather observed at this time
KRSW 181553Z 04003KT 10SM OVC060 24/17 A3016 RMK AO2 SLP211 T02390167

Conditions at: KRSW observed 18 November 2018  14:53 UTC
Temperature: 22.2°C (72°F)
Dewpoint: 16.1°C (61°F) [RH = 68%]
Pressure (altimeter): 30.16 inches Hg (1021.4 mb)
[Sea-level pressure: 1021.0 mb]
Winds: from the ENE (60 degrees) at 6 MPH (5 knots; 2.6 m/s)
Visibility: 10 or more miles (16+ km)
Ceiling: 6000 feet AGL
Clouds: broken clouds at 6000 feet AGL
broken clouds at 8000 feet AGL
Present Weather: no significant weather observed at this time
KRSW 181453Z 06005KT 10SM BKN060 BKN080 22/16 A3016 RMK AO2 SLP210 T02220161 53019

Conditions at: KRSW observed 18 November 2018  13:53 UTC
Temperature: 20.0°C (68°F)
Dewpoint: 15.6°C (60°F) [RH = 76%]
Pressure (altimeter): 30.14 inches Hg (1020.7 mb)
[Sea-level pressure: 1020.4 mb]
Winds: from the NE (40 degrees) at 6 MPH (5 knots; 2.6 m/s)
Visibility: 10 or more miles (16+ km)
Ceiling: 3500 feet AGL
Clouds: broken clouds at 3500 feet AGL
broken clouds at 7000 feet AGL
Present Weather: no significant weather observed at this time
KRSW 181353Z COR 04005KT 10SM BKN035 BKN070 20/16 A3014 RMK AO2 SLP204 T02000156

Conditions at: KRSW observed 18 November 2018  12:53 UTC
Temperature: 17.2°C (63°F)
Dewpoint: 14.4°C (58°F) [RH = 84%]
Pressure (altimeter): 30.12 inches Hg (1020.1 mb)
[Sea-level pressure: 1019.7 mb]
Winds: from the NE (50 degrees) at 6 MPH (5 knots; 2.6 m/s)
Visibility: 10 or more miles (16+ km)
Ceiling: at least 12,000 feet AGL
Clouds: scattered clouds at 7000 feet AGL
Present Weather: no significant weather observed at this time
KRSW 181253Z 05005KT 10SM SCT070 17/14 A3012 RMK AO2 SLP197 T01720144

Conditions at: KRSW observed 18 November 2018  11:53 UTC
Temperature: 16.1°C (61°F)
Dewpoint: 13.9°C (57°F) [RH = 87%]
Pressure (altimeter): 30.11 inches Hg (1019.7 mb)
[Sea-level pressure: 1019.2 mb]
Winds: from the NE (50 degrees) at 7 MPH (6 knots; 3.1 m/s)
Visibility: 10 or more miles (16+ km)
Ceiling: at least 12,000 feet AGL
Clouds: scattered clouds at 6500 feet AGL
Present Weather: no significant weather observed at this time
KRSW 181153Z 05006KT 10SM SCT065 16/14 A3011 RMK AO2 SLP192 T01610139 10172 20161 53008

Conditions at: KRSW observed 18 November 2018  10:53 UTC
Temperature: 16.1°C (61°F)
Dewpoint: 13.9°C (57°F) [RH = 87%]
Pressure (altimeter): 30.10 inches Hg (1019.4 mb)
[Sea-level pressure: 1018.9 mb]
Winds: from the NE (50 degrees) at 7 MPH (6 knots; 3.1 m/s)
Visibility: 10 or more miles (16+ km)
Ceiling: 8000 feet AGL
Clouds: few clouds at 6000 feet AGL
broken clouds at 8000 feet AGL
Present Weather: no significant weather observed at this time
KRSW 181053Z 05006KT 10SM FEW060 BKN080 16/14 A3010 RMK AO2 SLP189 T01610139

Conditions at: KRSW observed 18 November 2018  09:53 UTC
Temperature: 16.7°C (62°F)
Dewpoint: 13.9°C (57°F) [RH = 84%]
Pressure (altimeter): 30.09 inches Hg (1019.0 mb)
[Sea-level pressure: 1018.6 mb]
Winds: from the NE (50 degrees) at 6 MPH (5 knots; 2.6 m/s)
Visibility: 10 or more miles (16+ km)
Ceiling: 8000 feet AGL
Clouds: few clouds at 6000 feet AGL
broken clouds at 8000 feet AGL
Present Weather: automated observation with no human augmentation;
there may or may not be significant weather present at this time
KRSW 180953Z AUTO 05005KT 10SM FEW060 BKN080 17/14 A3009 RMK AO2 SLP186 T01670139

Conditions at: KRSW observed 18 November 2018  08:53 UTC
Temperature: 16.7°C (62°F)
Dewpoint: 13.9°C (57°F) [RH = 84%]
Pressure (altimeter): 30.08 inches Hg (1018.7 mb)
[Sea-level pressure: 1018.3 mb]
Winds: from the NNE (30 degrees) at 6 MPH (5 knots; 2.6 m/s)
Visibility: 10 or more miles (16+ km)
Ceiling: 7500 feet AGL
Clouds: broken clouds at 7500 feet AGL
Present Weather: automated observation with no human augmentation;
there may or may not be significant weather present at this time
KRSW 180853Z AUTO 03005KT 10SM BKN075 17/14 A3008 RMK AO2 SLP183 T01670139 56002

Conditions at: KRSW observed 18 November 2018  07:53 UTC
Temperature: 17.2°C (63°F)
Dewpoint: 13.3°C (56°F) [RH = 78%]
Pressure (altimeter): 30.08 inches Hg (1018.7 mb)
[Sea-level pressure: 1018.3 mb]
Winds: from the NE (40 degrees) at 5 MPH (4 knots; 2.1 m/s)
Visibility: 10 or more miles (16+ km)
Ceiling: 7000 feet AGL
Clouds: broken clouds at 7000 feet AGL
Present Weather: automated observation with no human augmentation;
there may or may not be significant weather present at this time
KRSW 180753Z AUTO 04004KT 10SM BKN070 17/13 A3008 RMK AO2 SLP183 T01720133

Conditions at: KRSW observed 18 November 2018  06:53 UTC
Temperature: 17.2°C (63°F)
Dewpoint: 12.8°C (55°F) [RH = 75%]
Pressure (altimeter): 30.08 inches Hg (1018.7 mb)
[Sea-level pressure: 1018.4 mb]
Winds: from the NNE (30 degrees) at 5 MPH (4 knots; 2.1 m/s)
Visibility: 10 or more miles (16+ km)
Ceiling: 7000 feet AGL
Clouds: broken clouds at 7000 feet AGL
Present Weather: automated observation with no human augmentation;
there may or may not be significant weather present at this time
KRSW 180653Z AUTO 03004KT 10SM BKN070 17/13 A3008 RMK AO2 SLP184 T01720128

Conditions at: KRSW observed 18 November 2018  05:53 UTC
Temperature: 16.7°C (62°F)
Dewpoint: 13.3°C (56°F) [RH = 80%]
Pressure (altimeter): 30.09 inches Hg (1019.0 mb)
[Sea-level pressure: 1018.6 mb]
Winds: from the NE (50 degrees) at 6 MPH (5 knots; 2.6 m/s)
Visibility: 10 or more miles (16+ km)
Ceiling: at least 12,000 feet AGL
Clouds: sky clear below 12,000 feet AGL
Present Weather: automated observation with no human augmentation;
there may or may not be significant weather present at this time
KRSW 180553Z AUTO 05005KT 10SM CLR 17/13 A3009 RMK AO2 SLP186 T01670133 10211 20167 56010

Conditions at: KRSW observed 18 November 2018  04:53 UTC
Temperature: 16.7°C (62°F)
Dewpoint: 13.9°C (57°F) [RH = 84%]
Pressure (altimeter): 30.10 inches Hg (1019.4 mb)
[Sea-level pressure: 1018.9 mb]
Winds: from the ENE (60 degrees) at 5 MPH (4 knots; 2.1 m/s)
Visibility: 10 or more miles (16+ km)
Ceiling: at least 12,000 feet AGL
Clouds: scattered clouds at 7000 feet AGL
Present Weather: automated observation with no human augmentation;
there may or may not be significant weather present at this time
KRSW 180453Z AUTO 06004KT 10SM SCT070 17/14 A3010 RMK AO2 SLP189 T01670139 402610111

Conditions at: KRSW observed 18 November 2018  03:53 UTC
Temperature: 17.8°C (64°F)
Dewpoint: 13.9°C (57°F) [RH = 78%]
Pressure (altimeter): 30.10 inches Hg (1019.4 mb)
[Sea-level pressure: 1019.1 mb]
Winds: from the NE (50 degrees) at 7 MPH (6 knots; 3.1 m/s)
Visibility: 10 or more miles (16+ km)
Ceiling: at least 12,000 feet AGL
Clouds: sky clear below 12,000 feet AGL
Present Weather: automated observation with no human augmentation;
there may or may not be significant weather present at this time
KRSW 180353Z AUTO 05006KT 10SM CLR 18/14 A3010 RMK AO2 SLP191 T01780139

Conditions at: KRSW observed 18 November 2018  02:53 UTC
Temperature: 18.3°C (65°F)
Dewpoint: 13.9°C (57°F) [RH = 76%]
Pressure (altimeter): 30.12 inches Hg (1020.1 mb)
[Sea-level pressure: 1019.6 mb]
Winds: from the E (80 degrees) at 6 MPH (5 knots; 2.6 m/s)
Visibility: 10 or more miles (16+ km)
Ceiling: at least 12,000 feet AGL
Clouds: few clouds at 5500 feet AGL
Present Weather: automated observation with no human augmentation;
there may or may not be significant weather present at this time
KRSW 180253Z AUTO 08005KT 10SM FEW055 18/14 A3012 RMK AO2 SLP196 T01830139 50008

Conditions at: KRSW observed 18 November 2018  01:53 UTC
Temperature: 20.0°C (68°F)
Dewpoint: 13.3°C (56°F) [RH = 65%]
Pressure (altimeter): 30.12 inches Hg (1020.1 mb)
[Sea-level pressure: 1019.6 mb]
Winds: from the ENE (70 degrees) at 7 MPH (6 knots; 3.1 m/s)
Visibility: 10 or more miles (16+ km)
Ceiling: at least 12,000 feet AGL
Clouds: few clouds at 5500 feet AGL
Present Weather: automated observation with no human augmentation;
there may or may not be significant weather present at this time
KRSW 180153Z AUTO 07006KT 10SM FEW055 20/13 A3012 RMK AO2 SLP196 T02000133

Conditions at: KRSW observed 18 November 2018  00:53 UTC
Temperature: 20.6°C (69°F)
Dewpoint: 12.2°C (54°F) [RH = 59%]
Pressure (altimeter): 30.11 inches Hg (1019.7 mb)
[Sea-level pressure: 1019.3 mb]
Winds: from the ENE (70 degrees) at 7 MPH (6 knots; 3.1 m/s)
Visibility: 10 or more miles (16+ km)
Ceiling: 6000 feet AGL
Clouds: overcast cloud deck at 6000 feet AGL
Present Weather: no significant weather observed at this time
KRSW 180053Z 07006KT 10SM OVC060 21/12 A3011 RMK AO2 SLP193 T02060122

Conditions at: KRSW observed 17 November 2018  23:53 UTC
Temperature: 21.1°C (70°F)
Dewpoint: 10.0°C (50°F) [RH = 49%]
Pressure (altimeter): 30.09 inches Hg (1019.0 mb)
[Sea-level pressure: 1018.8 mb]
Winds: from the NE (50 degrees) at 3 MPH (3 knots; 1.6 m/s)
Visibility: 10 or more miles (16+ km)
Ceiling: at least 12,000 feet AGL
Clouds: sky clear below 12,000 feet AGL
Present Weather: no significant weather observed at this time
KRSW 172353Z 05003KT 10SM CLR 21/10 A3009 RMK AO2 SLP188 T02110100 10261 20206 51013

Conditions at: KRSW observed 17 November 2018  22:53 UTC
Temperature: 22.2°C (72°F)
Dewpoint: 10.0°C (50°F) [RH = 46%]
Pressure (altimeter): 30.09 inches Hg (1019.0 mb)
[Sea-level pressure: 1018.5 mb]
Winds: from the E (90 degrees) at 6 MPH (5 knots; 2.6 m/s)
Visibility: 10 or more miles (16+ km)
Ceiling: at least 12,000 feet AGL
Clouds: sky clear below 12,000 feet AGL
Present Weather: no significant weather observed at this time
KRSW 172253Z 09005KT 10SM CLR 22/10 A3009 RMK AO2 SLP185 T02220100

Conditions at: KRSW observed 17 November 2018  21:53 UTC
Temperature: 24.4°C (76°F)
Dewpoint: 11.7°C (53°F) [RH = 45%]
Pressure (altimeter): 30.07 inches Hg (1018.4 mb)
[Sea-level pressure: 1018.1 mb]
Winds: from the E (90 degrees) at 7 MPH (6 knots; 3.1 m/s)
Visibility: 10 or more miles (16+ km)
Ceiling: at least 12,000 feet AGL
Clouds: sky clear below 12,000 feet AGL
Present Weather: no significant weather observed at this time
KRSW 172153Z 09006KT 10SM CLR 24/12 A3007 RMK AO2 SLP181 T02440117

Conditions at: KRSW observed 17 November 2018  20:53 UTC
Temperature: 25.6°C (78°F)
Dewpoint: 12.8°C (55°F) [RH = 45%]
Pressure (altimeter): 30.06 inches Hg (1018.0 mb)
[Sea-level pressure: 1017.6 mb]
Winds: from the E (80 degrees) at 10 MPH (9 knots; 4.7 m/s)
Visibility: 10 or more miles (16+ km)
Ceiling: at least 12,000 feet AGL
Clouds: sky clear below 12,000 feet AGL
Present Weather: no significant weather observed at this time
KRSW 172053Z 08009KT 10SM CLR 26/13 A3006 RMK AO2 SLP176 T02560128 55011

Conditions at: KRSW observed 17 November 2018  19:53 UTC
Temperature: 25.6°C (78°F)
Dewpoint: 12.8°C (55°F) [RH = 45%]
Pressure (altimeter): 30.05 inches Hg (1017.7 mb)
[Sea-level pressure: 1017.5 mb]
Winds: from the E (100 degrees) at 12 MPH (10 knots; 5.2 m/s)
Visibility: 10 or more miles (16+ km)
Ceiling: at least 12,000 feet AGL
Clouds: sky clear below 12,000 feet AGL
Present Weather: no significant weather observed at this time
KRSW 171953Z 10010KT 10SM CLR 26/13 A3005 RMK AO2 SLP175 T02560128

Conditions at: KRSW observed 17 November 2018  18:53 UTC
Temperature: 25.6°C (78°F)
Dewpoint: 13.3°C (56°F) [RH = 47%]
Pressure (altimeter): 30.06 inches Hg (1018.0 mb)
[Sea-level pressure: 1017.8 mb]
Winds: from the E (90 degrees) at 9 MPH (8 knots; 4.2 m/s)
Visibility: 10 or more miles (16+ km)
Ceiling: at least 12,000 feet AGL
Clouds: sky clear below 12,000 feet AGL
Present Weather: no significant weather observed at this time
KRSW 171853Z 09008KT 10SM CLR 26/13 A3006 RMK AO2 SLP178 T02560133

Conditions at: KRSW observed 17 November 2018  17:53 UTC
Temperature: 25.0°C (77°F)
Dewpoint: 14.4°C (58°F) [RH = 52%]
Pressure (altimeter): 30.09 inches Hg (1019.0 mb)
[Sea-level pressure: 1018.7 mb]
Winds: from the E (90 degrees) at 9 MPH (8 knots; 4.2 m/s)
Visibility: 10 or more miles (16+ km)
Ceiling: at least 12,000 feet AGL
Clouds: sky clear below 12,000 feet AGL
Present Weather: no significant weather observed at this time
KRSW 171753Z 09008KT 10SM CLR 25/14 A3009 RMK AO2 SLP187 T02500144 10250 20111 58028

Conditions at: KRSW observed 17 November 2018  16:53 UTC
Temperature: 22.2°C (72°F)
Dewpoint: 13.9°C (57°F) [RH = 59%]
Pressure (altimeter): 30.13 inches Hg (1020.4 mb)
[Sea-level pressure: 1020.1 mb]
Winds: from the ENE (70 degrees) at 12 MPH (10 knots; 5.2 m/s)
Visibility: 10 or more miles (16+ km)
Ceiling: at least 12,000 feet AGL
Clouds: sky clear below 12,000 feet AGL
Present Weather: no significant weather observed at this time
KRSW 171653Z 07010KT 10SM CLR 22/14 A3013 RMK AO2 SLP201 T02220139

Conditions at: KRSW observed 17 November 2018  15:53 UTC
Temperature: 20.0°C (68°F)
Dewpoint: 12.8°C (55°F) [RH = 63%]
Pressure (altimeter): 30.16 inches Hg (1021.4 mb)
[Sea-level pressure: 1021.1 mb]
Winds: from the NE (40 degrees) at 9 MPH (8 knots; 4.2 m/s)
Visibility: 10 or more miles (16+ km)
Ceiling: at least 12,000 feet AGL
Clouds: sky clear below 12,000 feet AGL
Present Weather: no significant weather observed at this time
KRSW 171553Z 04008KT 10SM CLR 20/13 A3016 RMK AO2 SLP211 T02000128

Conditions at: KRSW observed 17 November 2018  14:53 UTC
Temperature: 17.8°C (64°F)
Dewpoint: 11.7°C (53°F) [RH = 67%]
Pressure (altimeter): 30.17 inches Hg (1021.8 mb)
[Sea-level pressure: 1021.5 mb]
Winds: from the NE (50 degrees) at 10 MPH (9 knots; 4.7 m/s)
gusting to 16 MPH (14 knots; 7.3 m/s)
Visibility: 10 or more miles (16+ km)
Ceiling: at least 12,000 feet AGL
Clouds: sky clear below 12,000 feet AGL
Present Weather: no significant weather observed at this time
KRSW 171453Z 05009G14KT 10SM CLR 18/12 A3017 RMK AO2 SLP215 T01780117 50012

Conditions at: KRSW observed 17 November 2018  13:53 UTC
Temperature: 15.6°C (60°F)
Dewpoint: 10.0°C (50°F) [RH = 69%]
Pressure (altimeter): 30.18 inches Hg (1022.1 mb)
[Sea-level pressure: 1021.6 mb]
Winds: from the NNE (30 degrees) at 8 MPH (7 knots; 3.6 m/s)
Visibility: 10 or more miles (16+ km)
Ceiling: at least 12,000 feet AGL
Clouds: sky clear below 12,000 feet AGL
Present Weather: no significant weather observed at this time
KRSW 171353Z 03007KT 10SM CLR 16/10 A3018 RMK AO2 SLP216 T01560100

Conditions at: KRSW observed 17 November 2018  12:53 UTC
Temperature: 12.8°C (55°F)
Dewpoint: 8.9°C (48°F) [RH = 77%]
Pressure (altimeter): 30.15 inches Hg (1021.1 mb)
[Sea-level pressure: 1020.8 mb]
Winds: from the NNE (30 degrees) at 8 MPH (7 knots; 3.6 m/s)
Visibility: 10 or more miles (16+ km)
Ceiling: at least 12,000 feet AGL
Clouds: sky clear below 12,000 feet AGL
Present Weather: no significant weather observed at this time
KRSW 171253Z 03007KT 10SM CLR 13/09 A3015 RMK AO2 SLP208 T01280089

Conditions at: KRSW observed 17 November 2018  11:53 UTC
Temperature: 11.1°C (52°F)
Dewpoint: 7.8°C (46°F) [RH = 80%]
Pressure (altimeter): 30.14 inches Hg (1020.7 mb)
[Sea-level pressure: 1020.3 mb]
Winds: from the NNE (20 degrees) at 7 MPH (6 knots; 3.1 m/s)
Visibility: 10 or more miles (16+ km)
Ceiling: at least 12,000 feet AGL
Clouds: sky clear below 12,000 feet AGL
Present Weather: no significant weather observed at this time
KRSW 171153Z 02006KT 10SM CLR 11/08 A3014 RMK AO2 SLP203 T01110078 10128 20111 53013